Time;durP1;ratioP1;P1;durP2;ratioP2;P2;SDS_P1;SDS_P2;PMS_P1;PMS_P2;Temp;Humidity;BMP_temperature;BMP_pressure;BME280_temperature;BME280_humidity;BME280_pressure;Samples;Min_cycle;Max_cycle;Signal;HPM_P1;HPM_P2
2022/11/05 00:10:29;;;;;;;2.77;2.67;;;21.50;43.40;;;;;;5075169;28;20499;-74
2022/11/05 00:18:28;;;;;;;2.50;2.40;;;21.50;43.50;;;;;;5071754;28;20550;-76
2022/11/05 00:20:53;;;;;;;2.20;2.10;;;21.50;43.50;;;;;;5068081;28;20441;-75
2022/11/05 00:26:06;;;;;;;2.70;2.50;;;21.50;43.40;;;;;;5067859;28;20242;-75
2022/11/05 00:28:32;;;;;;;2.50;2.40;;;21.50;43.40;;;;;;5075297;28;20472;-76
2022/11/05 00:31:03;;;;;;;2.40;2.30;;;21.50;43.40;;;;;;5078448;28;20959;-75
2022/11/05 00:33:29;;;;;;;2.27;2.17;;;21.50;43.40;;;;;;5070782;28;20552;-75
2022/11/05 00:35:55;;;;;;;2.73;2.53;;;21.50;43.40;;;;;;5074959;28;20481;-74
2022/11/05 00:38:21;;;;;;;2.73;2.53;;;21.50;43.40;;;;;;5074739;28;20465;-75
2022/11/05 00:40:46;;;;;;;2.30;2.20;;;21.50;44.20;;;;;;5076147;28;20220;-74
2022/11/05 00:45:56;;;;;;;2.70;2.50;;;21.50;43.40;;;;;;5060970;28;20216;-74
2022/11/05 00:51:07;;;;;;;2.77;2.57;;;21.50;43.50;;;;;;5078067;28;20232;-74
2022/11/05 00:53:33;;;;;;;2.30;2.20;;;21.50;43.50;;;;;;5077737;28;20493;-77
2022/11/05 00:55:59;;;;;;;2.60;2.40;;;21.50;43.40;;;;;;5066985;28;20461;-74
2022/11/05 00:58:26;;;;;;;3.10;2.40;;;21.50;43.50;;;;;;5070805;28;20473;-75
2022/11/05 01:00:59;;;;;;;2.53;2.40;;;21.50;43.40;;;;;;5075823;28;20967;-75
2022/11/05 01:03:30;;;;;;;2.10;2.00;;;21.50;43.40;;;;;;5074688;28;20457;-74
2022/11/05 01:05:58;;;;;;;2.60;2.50;;;21.50;43.40;;;;;;5072630;28;20486;-74
2022/11/05 01:08:25;;;;;;;2.37;2.27;;;21.50;43.40;;;;;;5074682;28;20457;-73
2022/11/05 01:10:54;;;;;;;2.37;2.27;;;21.50;43.50;;;;;;5072374;28;20536;-74
2022/11/05 01:13:23;;;;;;;2.57;2.47;;;21.50;43.40;;;;;;5063234;28;20955;-74
2022/11/05 01:15:50;;;;;;;2.47;2.37;;;21.50;43.40;;;;;;5075515;28;20462;-74
2022/11/05 01:18:17;;;;;;;2.10;2.00;;;21.50;43.40;;;;;;5072140;28;20461;-77
2022/11/05 01:20:43;;;;;;;2.10;2.00;;;21.50;43.40;;;;;;5073789;28;20529;-74
2022/11/05 01:23:09;;;;;;;2.20;2.10;;;21.40;43.30;;;;;;5088308;28;20463;-74
2022/11/05 01:25:35;;;;;;;2.30;2.20;;;21.50;43.50;;;;;;5063970;28;20527;-74
2022/11/05 01:28:01;;;;;;;2.40;2.20;;;21.50;43.40;;;;;;5069680;28;20311;-74
2022/11/05 01:30:27;;;;;;;2.13;2.03;;;21.40;43.30;;;;;;5076705;28;20975;-74
2022/11/05 01:32:53;;;;;;;2.30;2.20;;;21.50;43.40;;;;;;5076712;28;20562;-74
2022/11/05 01:35:18;;;;;;;2.00;1.90;;;21.40;43.30;;;;;;5073322;28;20231;-75
2022/11/05 01:37:44;;;;;;;2.33;2.23;;;21.50;43.40;;;;;;5070858;28;20591;-74
2022/11/05 01:40:17;;;;;;;2.43;2.33;;;21.40;43.30;;;;;;5058740;28;20271;-74
2022/11/05 01:42:42;;;;;;;2.40;2.30;;;21.50;43.40;;;;;;5068479;28;20486;-74
2022/11/05 01:45:21;;;;;;;2.33;2.13;;;21.40;43.30;;;;;;5072730;28;20544;-74
2022/11/05 01:48:02;;;;;;;2.20;2.10;;;21.40;43.30;;;;;;5071674;28;20245;-74
2022/11/05 01:50:29;;;;;;;2.20;2.10;;;21.40;43.30;;;;;;5072353;28;20477;-74
2022/11/05 01:53:17;;;;;;;2.03;1.90;;;21.40;43.30;;;;;;5071543;28;20532;-74
2022/11/05 01:55:48;;;;;;;2.00;1.90;;;21.40;43.30;;;;;;5065705;28;20482;-76
2022/11/05 01:58:21;;;;;;;2.37;2.27;;;21.40;43.30;;;;;;5073779;28;20445;-76
2022/11/05 02:00:47;;;;;;;2.10;2.00;;;21.40;43.30;;;;;;5075825;28;20433;-74
2022/11/05 02:03:15;;;;;;;2.07;1.97;;;21.40;43.30;;;;;;5073533;28;20511;-74
2022/11/05 02:05:40;;;;;;;2.23;2.13;;;21.40;43.30;;;;;;5074233;28;20221;-74
2022/11/05 02:08:12;;;;;;;2.00;1.90;;;21.40;43.30;;;;;;5077578;28;20464;-75
2022/11/05 02:10:38;;;;;;;2.23;2.13;;;21.40;44.10;;;;;;5090600;28;20209;-74
2022/11/05 02:13:04;;;;;;;2.57;2.47;;;21.40;43.30;;;;;;5072933;28;21062;-74
2022/11/05 02:15:42;;;;;;;2.27;2.17;;;21.40;43.30;;;;;;5063849;28;20459;-74
2022/11/05 02:18:40;;;;;;;1.90;1.80;;;21.40;43.30;;;;;;5074930;28;20358;-74
2022/11/05 02:21:14;;;;;;;2.03;1.93;;;21.40;43.30;;;;;;5074164;28;20982;-74
2022/11/05 02:24:24;;;;;;;1.93;1.83;;;21.40;43.30;;;;;;5069208;28;20461;-74
2022/11/05 02:27:09;;;;;;;1.97;1.83;;;21.40;43.30;;;;;;5080457;28;20475;-74
2022/11/05 02:29:59;;;;;;;2.10;2.00;;;21.40;43.30;;;;;;5073357;28;20997;-74
2022/11/05 02:32:36;;;;;;;2.20;2.10;;;21.40;43.30;;;;;;5076662;28;20457;-74
2022/11/05 02:35:21;;;;;;;2.07;1.93;;;21.40;43.30;;;;;;5069847;28;20446;-74
2022/11/05 02:37:59;;;;;;;1.90;1.80;;;21.40;43.30;;;;;;5077253;28;20449;-76
2022/11/05 02:40:27;;;;;;;1.90;1.80;;;21.40;43.30;;;;;;5064951;28;20440;-74
2022/11/05 02:43:07;;;;;;;2.10;2.00;;;21.40;43.30;;;;;;5068388;28;20452;-74
2022/11/05 02:46:01;;;;;;;1.90;1.80;;;21.40;43.30;;;;;;5072964;28;21389;-74
2022/11/05 02:48:39;;;;;;;2.00;1.90;;;21.40;43.30;;;;;;5068984;28;20453;-74
2022/11/05 02:51:19;;;;;;;2.17;2.07;;;21.40;43.30;;;;;;5071094;28;21019;-75
2022/11/05 02:54:11;;;;;;;2.27;2.07;;;21.40;43.30;;;;;;5064774;28;20540;-75
2022/11/05 02:56:41;;;;;;;2.20;2.10;;;21.40;43.30;;;;;;5070313;28;20475;-74
2022/11/05 02:59:07;;;;;;;2.10;1.90;;;21.40;43.30;;;;;;5075519;28;20473;-75
2022/11/05 03:01:36;;;;;;;1.90;1.80;;;21.40;43.30;;;;;;5075856;28;20457;-74
2022/11/05 03:04:05;;;;;;;2.87;2.37;;;21.40;43.30;;;;;;5079337;28;20232;-73
2022/11/05 03:06:49;;;;;;;1.90;1.80;;;21.40;43.30;;;;;;5074998;28;20461;-75
2022/11/05 03:09:42;;;;;;;1.77;1.67;;;21.40;43.30;;;;;;5077487;28;20693;-74
2022/11/05 03:12:30;;;;;;;2.10;1.90;;;21.40;43.30;;;;;;5071949;28;20564;-75
2022/11/05 03:14:59;;;;;;;1.90;1.80;;;21.40;43.30;;;;;;5076597;28;20453;-74
2022/11/05 03:17:49;;;;;;;2.20;2.00;;;21.40;43.30;;;;;;5076677;28;20514;-74
2022/11/05 03:20:24;;;;;;;2.20;2.10;;;21.40;43.30;;;;;;5069894;28;20465;-75
2022/11/05 03:23:01;;;;;;;2.33;2.23;;;21.40;43.30;;;;;;5069984;28;20468;-75
2022/11/05 03:25:29;;;;;;;1.87;1.77;;;21.40;43.30;;;;;;5074389;28;20463;-75
2022/11/05 03:28:02;;;;;;;2.40;2.20;;;21.40;43.30;;;;;;5080787;28;20968;-74
2022/11/05 03:30:29;;;;;;;1.97;1.87;;;21.40;43.30;;;;;;5071786;28;20485;-76
2022/11/05 03:33:07;;;;;;;2.07;1.97;;;21.40;43.30;;;;;;5079777;28;20565;-76
2022/11/05 03:35:40;;;;;;;1.80;1.70;;;21.40;43.30;;;;;;5070938;28;20468;-74
2022/11/05 03:38:12;;;;;;;1.70;1.60;;;21.30;43.20;;;;;;5074695;28;20583;-75
2022/11/05 03:40:41;;;;;;;3.50;1.83;;;21.40;43.30;;;;;;5078038;28;20457;-74
2022/11/05 03:43:08;;;;;;;1.80;1.70;;;21.40;43.30;;;;;;5080023;28;20454;-74
2022/11/05 03:45:55;;;;;;;1.70;1.60;;;21.40;43.30;;;;;;5088853;27;22863;-74
2022/11/05 03:48:24;;;;;;;1.80;1.70;;;21.40;43.30;;;;;;5077037;28;20450;-74
2022/11/05 03:50:59;;;;;;;1.80;1.70;;;21.40;43.20;;;;;;5065467;28;20488;-75
2022/11/05 03:53:31;;;;;;;2.20;2.10;;;21.40;43.20;;;;;;5070606;28;20432;-75
2022/11/05 03:56:06;;;;;;;1.90;1.80;;;21.40;43.30;;;;;;5076030;28;20454;-79
2022/11/05 03:58:32;;;;;;;1.80;1.70;;;21.40;43.30;;;;;;5076689;28;20855;-77
2022/11/05 04:01:01;;;;;;;1.97;1.87;;;21.40;43.20;;;;;;5077042;28;20545;-76
2022/11/05 04:03:34;;;;;;;2.10;1.70;;;21.40;43.30;;;;;;5078334;28;20438;-76
2022/11/05 04:14:21;;;;;;;1.90;1.80;;;21.40;43.30;;;;;;5078377;28;20845;-78
2022/11/05 04:17:05;;;;;;;1.67;1.57;;;21.40;43.30;;;;;;5074514;28;20887;-78
2022/11/05 04:25:00;;;;;;;1.87;1.77;;;21.30;43.20;;;;;;5073512;28;20552;-76
2022/11/05 04:27:25;;;;;;;1.83;1.73;;;21.30;43.10;;;;;;5068963;28;20984;-76
2022/11/05 04:32:35;;;;;;;1.90;1.70;;;21.30;43.10;;;;;;5077668;28;20293;-76
2022/11/05 04:35:00;;;;;;;2.07;1.70;;;21.30;43.20;;;;;;5080554;28;20457;-77
2022/11/05 04:37:26;;;;;;;1.53;1.43;;;21.30;43.20;;;;;;5079968;28;20248;-76
2022/11/05 04:39:51;;;;;;;1.87;1.77;;;21.30;43.20;;;;;;5079660;28;20224;-76
2022/11/05 04:42:17;;;;;;;1.70;1.60;;;21.30;43.10;;;;;;5075164;28;20675;-77
2022/11/05 04:44:42;;;;;;;1.73;1.63;;;21.30;43.20;;;;;;5079197;28;20221;-77
2022/11/05 04:47:08;;;;;;;2.53;1.73;;;21.30;43.10;;;;;;5062669;28;22218;-76
2022/11/05 04:49:33;;;;;;;2.00;1.80;;;21.30;43.10;;;;;;5075634;28;20222;-75
2022/11/05 04:51:59;;;;;;;1.80;1.70;;;21.30;43.10;;;;;;5073931;28;20224;-79
2022/11/05 04:54:24;;;;;;;2.00;1.90;;;21.30;43.10;;;;;;5072687;28;20231;-77
2022/11/05 04:56:50;;;;;;;1.87;1.77;;;21.30;43.10;;;;;;5077862;28;20233;-75
2022/11/05 04:59:15;;;;;;;1.80;1.70;;;21.30;43.10;;;;;;5072148;28;20691;-76
2022/11/05 05:01:41;;;;;;;1.63;1.53;;;21.40;43.10;;;;;;5078532;28;20225;-74
2022/11/05 05:04:06;;;;;;;1.60;1.50;;;21.40;43.20;;;;;;5073307;28;20216;-75
2022/11/05 05:06:32;;;;;;;1.73;1.63;;;21.40;43.10;;;;;;5079347;28;20679;-73
2022/11/05 05:08:58;;;;;;;1.80;1.70;;;21.40;43.10;;;;;;5078446;28;20335;-73
2022/11/05 05:11:23;;;;;;;1.90;1.80;;;21.40;43.10;;;;;;5070211;28;20785;-76
2022/11/05 05:13:49;;;;;;;1.70;1.60;;;21.40;43.10;;;;;;5070115;28;20217;-73
2022/11/05 05:16:20;;;;;;;1.60;1.50;;;21.40;43.00;;;;;;5078877;28;20240;-74
2022/11/05 05:18:47;;;;;;;1.70;1.60;;;21.40;43.00;;;;;;5069624;28;20311;-75
2022/11/05 05:23:58;;;;;;;2.07;1.97;;;21.40;43.10;;;;;;5076557;28;20459;-75
2022/11/05 05:26:24;;;;;;;1.60;1.50;;;21.40;43.00;;;;;;5071357;28;20537;-74
2022/11/05 05:28:52;;;;;;;1.50;1.40;;;21.40;43.00;;;;;;5071063;28;20756;-77
2022/11/05 05:31:18;;;;;;;2.00;1.90;;;21.40;43.00;;;;;;5070458;28;20220;-74
2022/11/05 05:33:43;;;;;;;2.73;1.67;;;21.40;43.00;;;;;;5074488;28;21591;-74
2022/11/05 05:36:09;;;;;;;1.70;1.60;;;21.40;43.00;;;;;;5091388;28;20213;-74
2022/11/05 05:38:34;;;;;;;1.60;1.50;;;21.40;43.00;;;;;;5075676;28;20584;-73
2022/11/05 05:41:00;;;;;;;1.87;1.77;;;21.40;42.90;;;;;;5067332;28;20221;-74
2022/11/05 05:43:29;;;;;;;1.87;1.77;;;21.40;43.00;;;;;;5073673;28;20204;-77
2022/11/05 05:45:56;;;;;;;1.60;1.50;;;21.40;42.90;;;;;;5079203;28;20248;-75
2022/11/05 05:48:22;;;;;;;1.70;1.60;;;21.40;42.90;;;;;;5079372;28;20524;-77
2022/11/05 05:50:48;;;;;;;1.90;1.80;;;21.40;42.90;;;;;;5078038;28;20429;-75
2022/11/05 05:53:13;;;;;;;2.10;1.63;;;21.40;42.90;;;;;;5076417;28;20457;-75
2022/11/05 05:55:39;;;;;;;1.90;1.80;;;21.40;42.90;;;;;;5062598;28;20584;-77
2022/11/05 05:58:04;;;;;;;2.00;1.90;;;21.40;42.90;;;;;;5070721;28;20201;-75
2022/11/05 06:00:30;;;;;;;1.83;1.73;;;21.40;42.90;;;;;;5076180;28;20260;-74
2022/11/05 06:02:55;;;;;;;1.70;1.60;;;21.40;42.90;;;;;;5076239;28;20585;-77
2022/11/05 06:05:21;;;;;;;1.70;1.60;;;21.40;42.90;;;;;;5076279;28;20291;-74
2022/11/05 06:07:54;;;;;;;1.57;1.47;;;21.40;42.90;;;;;;5063929;28;20233;-74
2022/11/05 06:10:20;;;;;;;1.63;1.53;;;21.40;42.90;;;;;;5076209;28;20512;-74
2022/11/05 06:12:45;;;;;;;1.70;1.60;;;21.40;42.90;;;;;;5084697;28;20457;-75
2022/11/05 06:15:11;;;;;;;1.90;1.80;;;21.40;42.90;;;;;;5069665;28;20225;-75
2022/11/05 06:17:36;;;;;;;1.60;1.50;;;21.40;42.90;;;;;;5072846;28;20233;-74
2022/11/05 06:20:02;;;;;;;1.60;1.50;;;21.40;42.80;;;;;;5073706;28;20247;-75
2022/11/05 06:22:28;;;;;;;1.70;1.60;;;21.40;42.90;;;;;;5075562;28;20225;-74
2022/11/05 06:24:53;;;;;;;1.60;1.50;;;21.40;42.80;;;;;;5068523;28;20224;-76
2022/11/05 06:27:19;;;;;;;1.53;1.43;;;21.40;42.80;;;;;;5074491;28;20600;-74
2022/11/05 06:29:44;;;;;;;1.70;1.60;;;21.50;42.90;;;;;;5064684;28;20923;-76
2022/11/05 06:32:10;;;;;;;1.93;1.80;;;21.40;42.80;;;;;;5074575;28;20213;-74
2022/11/05 06:34:35;;;;;;;1.80;1.70;;;21.40;42.80;;;;;;5080630;28;20233;-75
2022/11/05 06:37:01;;;;;;;5.70;1.63;;;21.40;42.80;;;;;;5079537;28;20214;-74
2022/11/05 06:39:26;;;;;;;1.73;1.63;;;21.40;42.80;;;;;;5072643;28;20232;-75
2022/11/05 06:41:52;;;;;;;1.60;1.50;;;21.40;42.70;;;;;;5086062;28;20255;-75
2022/11/05 06:44:17;;;;;;;1.57;1.47;;;21.40;42.80;;;;;;5073610;28;20805;-74
2022/11/05 06:46:43;;;;;;;1.70;1.60;;;21.50;42.80;;;;;;5078646;28;20231;-75
2022/11/05 06:49:08;;;;;;;1.70;1.60;;;21.50;42.80;;;;;;5077202;28;20216;-74
2022/11/05 06:51:34;;;;;;;1.87;1.77;;;21.40;42.70;;;;;;5078055;28;20286;-75
2022/11/05 06:53:59;;;;;;;1.80;1.70;;;21.40;42.70;;;;;;5086230;28;20212;-74
2022/11/05 06:56:25;;;;;;;1.70;1.60;;;21.50;42.70;;;;;;5071161;28;20297;-75
2022/11/05 06:58:50;;;;;;;1.87;1.77;;;21.50;42.80;;;;;;5082899;28;20258;-76
2022/11/05 07:01:16;;;;;;;2.40;1.63;;;21.40;42.70;;;;;;5067472;28;20221;-75
2022/11/05 07:03:43;;;;;;;1.83;1.73;;;21.50;42.70;;;;;;5073301;28;20217;-75
2022/11/05 07:06:09;;;;;;;1.80;1.70;;;21.40;42.60;;;;;;5083592;28;20221;-74
2022/11/05 07:08:36;;;;;;;1.90;1.50;;;21.50;42.70;;;;;;5080970;28;20460;-77
2022/11/05 07:11:03;;;;;;;1.63;1.53;;;21.50;42.70;;;;;;5077574;28;20237;-74
2022/11/05 07:13:28;;;;;;;1.70;1.60;;;21.50;42.70;;;;;;5074525;28;20477;-75
2022/11/05 07:15:54;;;;;;;1.57;1.47;;;21.50;42.70;;;;;;5071012;28;20513;-74
2022/11/05 07:18:19;;;;;;;2.80;1.80;;;21.50;42.70;;;;;;5062363;28;20314;-76
2022/11/05 07:20:45;;;;;;;5.03;1.93;;;21.50;43.10;;;;;;5071822;28;20299;-75
2022/11/05 07:23:12;;;;;;;4.40;2.67;;;21.50;42.70;;;;;;5077420;28;20671;-75
2022/11/05 07:25:38;;;;;;;1.70;1.60;;;21.50;42.70;;;;;;5076753;28;20217;-74
2022/11/05 07:28:04;;;;;;;1.80;1.70;;;21.50;42.70;;;;;;5080090;28;20487;-74
2022/11/05 07:30:31;;;;;;;2.00;1.90;;;21.50;42.70;;;;;;5071500;28;20221;-76
2022/11/05 07:32:56;;;;;;;1.93;1.73;;;21.50;42.60;;;;;;5079761;28;20456;-73
2022/11/05 07:35:22;;;;;;;1.57;1.47;;;21.50;42.70;;;;;;5080521;28;20516;-74
2022/11/05 07:37:49;;;;;;;2.20;1.60;;;21.50;42.60;;;;;;5080761;28;20289;-74
2022/11/05 07:40:18;;;;;;;2.93;1.50;;;21.50;42.70;;;;;;5079429;28;20237;-76
2022/11/05 07:42:51;;;;;;;1.80;1.70;;;21.50;42.70;;;;;;5069598;28;20469;-75
2022/11/05 07:45:17;;;;;;;1.60;1.50;;;21.50;42.60;;;;;;5088409;28;20934;-75
2022/11/05 07:47:48;;;;;;;2.10;1.90;;;21.50;42.70;;;;;;5077088;28;20457;-74
2022/11/05 07:50:15;;;;;;;2.17;1.83;;;21.50;42.60;;;;;;5075061;28;20221;-74
2022/11/05 07:52:40;;;;;;;2.03;1.57;;;21.40;42.60;;;;;;5074558;28;20446;-76
2022/11/05 07:55:07;;;;;;;1.73;1.63;;;21.50;42.60;;;;;;5080863;28;20468;-75
2022/11/05 07:57:40;;;;;;;9.30;2.00;;;21.50;42.60;;;;;;5079430;28;20217;-76
2022/11/05 08:00:06;;;;;;;2.33;1.63;;;21.50;42.60;;;;;;5079282;28;20565;-76
2022/11/05 08:02:32;;;;;;;2.07;1.97;;;21.50;42.60;;;;;;5075046;28;20477;-75
2022/11/05 08:04:57;;;;;;;1.93;1.80;;;21.50;42.60;;;;;;5067936;28;20540;-75
2022/11/05 08:07:23;;;;;;;2.00;1.80;;;21.50;42.60;;;;;;5077676;28;20582;-76
2022/11/05 08:09:48;;;;;;;2.20;1.60;;;21.50;42.60;;;;;;5074722;28;20224;-75
2022/11/05 08:12:14;;;;;;;1.80;1.70;;;21.50;42.60;;;;;;5059946;28;20226;-75
2022/11/05 08:14:39;;;;;;;1.80;1.70;;;21.50;42.60;;;;;;5069660;28;20231;-76
2022/11/05 08:17:05;;;;;;;1.50;1.40;;;21.50;42.60;;;;;;5060041;28;20291;-75
2022/11/05 08:19:30;;;;;;;2.07;1.60;;;21.50;42.60;;;;;;5076352;28;20235;-74
2022/11/05 08:21:56;;;;;;;2.40;1.97;;;21.50;42.60;;;;;;5074788;28;20239;-81
2022/11/05 08:24:22;;;;;;;1.90;1.80;;;21.50;42.70;;;;;;5072314;28;20243;-77
2022/11/05 08:26:47;;;;;;;1.63;1.50;;;21.50;42.70;;;;;;5070969;28;20220;-78
2022/11/05 08:29:13;;;;;;;2.80;1.60;;;21.50;42.60;;;;;;5080409;28;20754;-77
2022/11/05 08:31:38;;;;;;;2.00;1.80;;;21.50;42.60;;;;;;5072085;28;20217;-81
2022/11/05 08:34:04;;;;;;;2.00;1.63;;;21.50;42.60;;;;;;5068516;28;20228;-79
2022/11/05 08:36:29;;;;;;;1.50;1.40;;;21.50;42.60;;;;;;5073248;28;20220;-78
2022/11/05 08:38:57;;;;;;;2.13;1.93;;;21.50;42.70;;;;;;5069753;28;20235;-75
2022/11/05 08:41:23;;;;;;;1.73;1.60;;;21.50;42.70;;;;;;5081539;28;20228;-74
2022/11/05 08:43:49;;;;;;;4.90;1.70;;;21.50;42.70;;;;;;5073336;28;21036;-75
2022/11/05 08:46:14;;;;;;;1.80;1.53;;;21.50;42.70;;;;;;5092328;28;20362;-74
2022/11/05 08:48:40;;;;;;;1.57;1.47;;;21.50;42.70;;;;;;5071821;28;20216;-73
2022/11/05 08:51:05;;;;;;;7.50;2.50;;;21.50;42.70;;;;;;5072897;28;20220;-76
2022/11/05 08:53:31;;;;;;;2.33;1.70;;;21.50;42.60;;;;;;5066687;28;20217;-75
2022/11/05 08:55:57;;;;;;;1.80;1.70;;;21.50;42.60;;;;;;5071014;28;20261;-74
2022/11/05 08:58:23;;;;;;;2.63;1.50;;;21.50;42.60;;;;;;5073191;28;20263;-74
2022/11/05 09:00:49;;;;;;;1.80;1.70;;;21.50;42.60;;;;;;5075701;28;20518;-75
2022/11/05 09:03:15;;;;;;;2.40;1.57;;;21.50;42.50;;;;;;5076982;28;20619;-76
2022/11/05 09:05:41;;;;;;;1.60;1.50;;;21.50;42.50;;;;;;5078469;28;20450;-76
2022/11/05 09:08:10;;;;;;;1.80;1.70;;;21.50;42.50;;;;;;5078234;28;20458;-74
2022/11/05 09:10:36;;;;;;;2.00;1.50;;;21.50;42.50;;;;;;5073321;28;20540;-75
2022/11/05 09:13:03;;;;;;;2.73;1.70;;;21.50;42.50;;;;;;5077587;28;20422;-75
2022/11/05 09:15:29;;;;;;;1.80;1.60;;;21.50;42.50;;;;;;5071998;28;20540;-77
2022/11/05 09:17:55;;;;;;;1.63;1.53;;;21.50;42.50;;;;;;5079093;28;20481;-76
2022/11/05 09:20:21;;;;;;;1.60;1.50;;;21.50;42.40;;;;;;5080768;28;20499;-77
2022/11/05 09:22:47;;;;;;;1.67;1.57;;;21.50;42.50;;;;;;5075010;28;20225;-76
2022/11/05 09:25:14;;;;;;;2.00;1.80;;;21.50;42.50;;;;;;5072612;28;20465;-77
2022/11/05 09:27:40;;;;;;;1.50;1.40;;;21.50;42.40;;;;;;5071365;28;20544;-77
2022/11/05 09:30:06;;;;;;;1.80;1.70;;;21.50;42.50;;;;;;5074385;28;21301;-77
2022/11/05 09:32:32;;;;;;;1.60;1.50;;;21.50;42.40;;;;;;5072764;28;20228;-76
2022/11/05 09:34:59;;;;;;;1.67;1.57;;;21.50;42.40;;;;;;5069803;28;20450;-76
2022/11/05 09:37:26;;;;;;;1.80;1.50;;;21.50;42.50;;;;;;5073993;28;20220;-76
2022/11/05 09:39:51;;;;;;;3.03;1.60;;;21.50;42.40;;;;;;5097557;28;20488;-76
2022/11/05 09:42:19;;;;;;;1.70;1.60;;;21.50;42.40;;;;;;5068965;28;20814;-76
2022/11/05 09:44:53;;;;;;;1.77;1.40;;;21.50;42.40;;;;;;5080299;28;20311;-76
2022/11/05 09:47:24;;;;;;;1.87;1.40;;;21.50;42.40;;;;;;5076162;28;21040;-76
2022/11/05 09:49:55;;;;;;;2.97;1.90;;;21.50;42.40;;;;;;5073905;28;20452;-76
2022/11/05 09:52:24;;;;;;;2.00;1.87;;;21.50;42.40;;;;;;5076540;28;21054;-76
2022/11/05 09:54:50;;;;;;;1.50;1.40;;;21.50;42.40;;;;;;5076678;28;20530;-76
2022/11/05 09:57:20;;;;;;;1.60;1.50;;;21.50;42.40;;;;;;5087322;28;20462;-75
2022/11/05 09:59:53;;;;;;;1.60;1.43;;;21.50;42.40;;;;;;5063121;28;20461;-76
2022/11/05 10:02:31;;;;;;;1.60;1.50;;;21.50;42.40;;;;;;5079348;28;20448;-76
2022/11/05 10:04:59;;;;;;;2.60;1.63;;;21.50;42.40;;;;;;5080722;28;20445;-76
2022/11/05 10:07:28;;;;;;;3.17;1.90;;;21.50;42.40;;;;;;5083009;27;20492;-76
2022/11/05 10:10:03;;;;;;;1.30;1.20;;;21.50;42.30;;;;;;5078302;28;20910;-76
2022/11/05 10:12:46;;;;;;;1.50;1.40;;;21.50;42.30;;;;;;5079893;28;20453;-76
2022/11/05 10:15:41;;;;;;;1.50;1.40;;;21.50;42.30;;;;;;5075033;28;20576;-77
2022/11/05 10:18:20;;;;;;;1.53;1.43;;;21.50;42.40;;;;;;5065188;28;20484;-76
2022/11/05 10:20:46;;;;;;;1.60;1.50;;;21.50;42.30;;;;;;5082911;28;20482;-76
2022/11/05 10:23:15;;;;;;;1.60;1.50;;;21.50;42.30;;;;;;5073632;28;20457;-76
2022/11/05 10:25:45;;;;;;;1.43;1.33;;;21.50;42.30;;;;;;5069688;28;20366;-76
2022/11/05 10:28:17;;;;;;;1.47;1.37;;;21.50;42.30;;;;;;5081251;28;20445;-76
2022/11/05 10:30:50;;;;;;;1.50;1.40;;;21.50;42.30;;;;;;5079668;28;20482;-76
2022/11/05 10:33:27;;;;;;;1.40;1.30;;;21.50;42.30;;;;;;5073650;28;20964;-76
2022/11/05 10:35:57;;;;;;;3.43;1.80;;;21.50;42.30;;;;;;5072916;28;20445;-76
2022/11/05 10:38:23;;;;;;;1.80;1.70;;;21.50;42.30;;;;;;5078461;28;20484;-76
2022/11/05 10:41:13;;;;;;;1.80;1.23;;;21.50;42.30;;;;;;5074091;28;20982;-76
2022/11/05 10:43:49;;;;;;;1.57;1.47;;;21.50;42.30;;;;;;5073046;28;20289;-76
2022/11/05 10:46:26;;;;;;;1.50;1.40;;;21.50;42.30;;;;;;5075474;28;23083;-76
2022/11/05 10:49:04;;;;;;;1.43;1.33;;;21.50;42.30;;;;;;5071786;28;20441;-77
2022/11/05 10:51:31;;;;;;;1.90;1.57;;;21.50;42.40;;;;;;5075855;28;20443;-77
2022/11/05 10:54:03;;;;;;;1.60;1.50;;;21.50;42.30;;;;;;5082110;28;20535;-76
2022/11/05 10:56:38;;;;;;;1.87;1.77;;;21.50;42.30;;;;;;5082127;28;20441;-76
2022/11/05 10:59:17;;;;;;;1.63;1.30;;;21.50;42.30;;;;;;5081140;28;20501;-75
2022/11/05 11:01:43;;;;;;;1.60;1.50;;;21.50;42.30;;;;;;5074340;28;20456;-75
2022/11/05 11:04:21;;;;;;;1.67;1.57;;;21.50;42.30;;;;;;5073547;28;20515;-76
2022/11/05 11:06:53;;;;;;;1.70;1.60;;;21.50;42.20;;;;;;5072209;28;20229;-75
2022/11/05 11:09:25;;;;;;;1.37;1.27;;;21.50;42.30;;;;;;5072297;28;20971;-76
2022/11/05 11:12:00;;;;;;;2.00;1.33;;;21.50;42.30;;;;;;5077100;28;20453;-75
2022/11/05 11:14:25;;;;;;;3.87;1.40;;;21.50;42.20;;;;;;5080992;28;20571;-76
2022/11/05 11:16:56;;;;;;;1.50;1.40;;;21.50;42.30;;;;;;5073237;28;20489;-76
2022/11/05 11:19:27;;;;;;;2.20;2.00;;;21.50;42.30;;;;;;5078062;28;20278;-75
2022/11/05 11:22:02;;;;;;;1.87;1.30;;;21.50;42.30;;;;;;5075060;28;20968;-75
2022/11/05 11:24:28;;;;;;;1.50;1.40;;;21.50;42.30;;;;;;5077262;28;20444;-74
2022/11/05 11:26:59;;;;;;;1.73;1.63;;;21.50;42.30;;;;;;5081978;28;20449;-74
2022/11/05 11:29:27;;;;;;;1.40;1.30;;;21.50;42.30;;;;;;5082303;28;20468;-74
2022/11/05 11:31:55;;;;;;;1.43;1.33;;;21.60;42.30;;;;;;5072481;28;20474;-75
2022/11/05 11:34:29;;;;;;;1.97;1.67;;;21.50;42.30;;;;;;5093984;28;20523;-73
2022/11/05 11:37:06;;;;;;;1.40;1.30;;;21.50;42.30;;;;;;5080268;28;20467;-73
2022/11/05 11:39:32;;;;;;;1.50;1.40;;;21.60;42.40;;;;;;5082134;28;20476;-71
2022/11/05 11:42:04;;;;;;;1.83;1.30;;;21.60;42.50;;;;;;5076762;28;20443;-75
2022/11/05 11:44:35;;;;;;;1.30;1.20;;;21.60;42.40;;;;;;5068130;28;22053;-74
2022/11/05 11:47:07;;;;;;;1.70;1.60;;;21.60;42.40;;;;;;5074504;28;20442;-74
2022/11/05 11:49:40;;;;;;;1.50;1.40;;;21.60;42.40;;;;;;5078770;28;20450;-74
2022/11/05 11:52:15;;;;;;;1.60;1.50;;;21.60;42.40;;;;;;5081331;28;20454;-75
2022/11/05 11:54:41;;;;;;;1.50;1.40;;;21.60;42.40;;;;;;5078559;28;20468;-76
2022/11/05 11:57:25;;;;;;;1.30;1.20;;;21.60;42.40;;;;;;5069960;28;20584;-75
2022/11/05 11:59:53;;;;;;;1.33;1.23;;;21.60;42.30;;;;;;5075784;28;20568;-75
2022/11/05 12:02:38;;;;;;;1.90;1.30;;;21.60;42.30;;;;;;5082903;28;21006;-77
2022/11/05 12:05:15;;;;;;;1.47;1.37;;;21.60;42.40;;;;;;5081671;28;20449;-74
2022/11/05 12:07:48;;;;;;;1.43;1.33;;;21.60;42.40;;;;;;5069235;28;21025;-78
2022/11/05 12:10:40;;;;;;;1.50;1.30;;;21.60;42.40;;;;;;5068702;28;20987;-75
2022/11/05 12:13:43;;;;;;;1.50;1.40;;;21.60;42.40;;;;;;5068517;28;20475;-75
2022/11/05 12:16:25;;;;;;;1.50;1.40;;;21.60;42.40;;;;;;5067156;28;20984;-74
2022/11/05 12:19:14;;;;;;;1.43;1.33;;;21.50;42.40;;;;;;5071717;27;20462;-78
2022/11/05 12:21:54;;;;;;;1.50;1.40;;;21.50;42.40;;;;;;5072523;28;21221;-75
2022/11/05 12:24:36;;;;;;;1.30;1.20;;;21.50;42.40;;;;;;5064401;28;20449;-75
2022/11/05 12:27:30;;;;;;;1.40;1.30;;;21.50;42.40;;;;;;5066816;28;20461;-77
2022/11/05 12:30:01;;;;;;;2.20;1.40;;;21.50;42.40;;;;;;5070878;28;20446;-75
2022/11/05 12:32:34;;;;;;;1.40;1.30;;;21.60;42.50;;;;;;5072005;28;20454;-73
2022/11/05 12:35:38;;;;;;;3.20;1.40;;;21.50;42.40;;;;;;5084100;28;20469;-74
2022/11/05 12:38:36;;;;;;;2.80;1.17;;;21.50;42.40;;;;;;5072404;28;20465;-72
2022/11/05 12:41:18;;;;;;;6.30;1.97;;;21.50;42.40;;;;;;5074003;28;20862;-73
2022/11/05 12:44:03;;;;;;;2.87;1.80;;;21.50;42.40;;;;;;5077138;28;20549;-74
2022/11/05 12:46:57;;;;;;;9.33;1.40;;;21.60;42.50;;;;;;5071574;28;20487;-74
2022/11/05 12:50:01;;;;;;;1.60;1.40;;;21.60;42.50;;;;;;5073567;28;20455;-73
2022/11/05 12:52:39;;;;;;;1.50;1.40;;;21.60;42.50;;;;;;5080687;28;20447;-74
2022/11/05 12:55:13;;;;;;;2.00;1.30;;;21.60;42.60;;;;;;5072472;28;20438;-73
2022/11/05 12:57:42;;;;;;;1.40;1.30;;;21.60;42.60;;;;;;5085231;28;20507;-74
2022/11/05 13:00:21;;;;;;;4.13;1.40;;;21.50;42.50;;;;;;5071099;28;20477;-73
2022/11/05 13:03:04;;;;;;;2.30;1.50;;;21.50;42.50;;;;;;5074423;28;20445;-73
2022/11/05 13:05:44;;;;;;;1.60;1.50;;;21.60;42.60;;;;;;5082201;28;20465;-73
2022/11/05 13:08:18;;;;;;;1.77;1.30;;;21.50;42.50;;;;;;5079059;28;20469;-73
2022/11/05 13:10:44;;;;;;;4.00;1.90;;;21.60;43.50;;;;;;5084164;27;20458;-74
2022/11/05 13:13:37;;;;;;;1.73;1.63;;;21.50;42.60;;;;;;5077161;28;20449;-74
2022/11/05 13:16:10;;;;;;;1.93;1.37;;;21.60;42.60;;;;;;5074982;28;20682;-75
2022/11/05 13:18:52;;;;;;;3.13;1.43;;;21.60;42.70;;;;;;5070307;28;21096;-75
2022/11/05 13:21:22;;;;;;;1.50;1.30;;;21.50;42.50;;;;;;5074427;28;20442;-75
2022/11/05 13:24:04;;;;;;;1.87;1.30;;;21.50;42.50;;;;;;5078532;28;20441;-74
2022/11/05 13:26:46;;;;;;;2.90;1.30;;;21.50;42.50;;;;;;5086937;28;20449;-75
2022/11/05 13:29:37;;;;;;;1.40;1.30;;;21.50;42.60;;;;;;5075833;28;21054;-74
2022/11/05 13:32:33;;;;;;;4.00;1.87;;;21.60;42.60;;;;;;5075699;28;20487;-74
2022/11/05 13:35:01;;;;;;;2.83;1.60;;;21.50;42.50;;;;;;5077699;28;20460;-74
2022/11/05 13:40:35;;;;;;;2.60;1.47;;;21.50;42.60;;;;;;5068716;28;20487;-74
2022/11/05 13:43:37;;;;;;;1.40;1.30;;;21.50;42.60;;;;;;5076671;28;20453;-75
2022/11/05 13:46:21;;;;;;;1.60;1.40;;;21.50;42.50;;;;;;5079505;28;20461;-75
2022/11/05 13:49:35;;;;;;;1.50;1.40;;;21.50;42.60;;;;;;5088038;28;20483;-75
2022/11/05 13:52:21;;;;;;;1.30;1.20;;;21.50;42.60;;;;;;5008216;28;20472;-75
2022/11/05 13:54:52;;;;;;;3.20;1.60;;;21.50;42.60;;;;;;5082216;28;20960;-76